Rogers, AR (72756)

1:10 AM CDT on September 19, 2014 (GMT -0500)
Little Flock | Change Station
CLOSE
Current Station
Personal Weather Station
Location: Little Flock, AR
Elevation: 1293 ft
Nearby Weather Stations

Elev 1293 ft 36.39 °N, 94.14 °W | Updated 55 seconds ago

Overcast
Overcast
65.2 °F
Feels Like 65.2 °F
N
0.0
Wind Variable Wind from SSE
Gusts 0.0 mph

Today
High -- | Low -- °F
--% Chance of Precip.
Yesterday
High -- | Low -- °F
Precip. -- in
7:01 AM 7:17 PM
Waning Crescent, 21% visible
Pressure 30.01 in
Visibility 10.0 miles
Clouds Overcast 900 ft
Dew Point 63 °F
Humidity 92%
Rainfall 0.00 in
Snow Depth Not available.
UV 0 out of 12
Pollen 9.20 out of 12
Air Quality Not available.
Flu Activity Not available.
METAR KROG 190557Z AUTO 10008KT 10SM OVC009 18/16 A3004 RMK AO2 SLP163 T01830161 10222 20178 50005

More Conditions Fewer Conditions

Pressure 30.01 in
Visibility 10.0 miles
Clouds Overcast 900 ft
Dew Point 63 °F
Humidity 92%
Rainfall 0.00 in
Snow Depth Not available.
UV 0 out of 12
Pollen 9.20 out of 12
Air Quality Not available.
Flu Activity Not available.
METAR KROG 190557Z AUTO 10008KT 10SM OVC009 18/16 A3004 RMK AO2 SLP163 T01830161 10222 20178 50005

More Conditions Fewer Conditions

10-Day Weather Forecast

Almanac

Astronomy

Sep. 19, 2014 Rise Set
Actual Time 7:01 AM CDT 7:17 PM CDT
Civil Twilight 6:35 AM CDT 7:43 PM CDT
Nautical Twilight 6:05 AM CDT 8:13 PM CDT
Astronomical Twilight 5:35 AM CDT 8:43 PM CDT
Moon 2:53 AM CDT 4:41 PM CDT
Length of Visible Light 13h 07m
Length of Day
12h 15m
Tomorrow will be 2m 17s shorter.
Waning Crescent, 21% of the Moon is Illuminated
Today
Waning Crescent
Sep 24
New
Oct 1
First Quarter
Oct 8
Full
Oct 15
Last Quarter

Today's Extremes

State Highs State Lows

Community

WunderPhotos

Upload Photos

1,754,575 photos uploaded!

Nearby

Snow Depth

Station Depth Elevation
No new snow has been reported.

Earthquake Activity

City Distance Mag. Time & Date
No recent earthquake activity has been reported nearby.
Minimum magnitude displayed is 2.5.

Coastal Water Temperatures

Place Temperature
No Stations Reporting

Nearby Weather Stations